Terminal Aerodrome Forecast
Issued by NWS Chicago, IL

Home | Current Version | Previous Version | Graphics & Text | Print | Product List | Glossary On
Versions: 1 2 3 4 5 6 7 8 9 10 11 12 13 14 15 16 17 18 19 20 21 22 23 24 25 26 27 28
987
FTUS43 KLOT 210912 AAA
TAFRFD
TAF AMD
KRFD 210912Z 2109/2206 25010KT P6SM BKN035
      TEMPO 2111/2114 SKC
     FM211400 25015G25KT P6SM BKN035
     FM220200 25012KT P6SM BKN035=

USA.gov is the U.S. government's official web portal to all federal, state and local government web resources and services.